sensor_id;sensor_type;location;lat;lon;timestamp;temperature;humidity
15596;DHT22;7898;48.658;9.068;2023-07-28T00:02:01;15.00;99.90
15596;DHT22;7898;48.658;9.068;2023-07-28T00:04:28;15.00;99.90
15596;DHT22;7898;48.658;9.068;2023-07-28T00:06:55;14.90;99.90
15596;DHT22;7898;48.658;9.068;2023-07-28T00:09:22;14.90;99.90
15596;DHT22;7898;48.658;9.068;2023-07-28T00:11:50;14.90;99.90
15596;DHT22;7898;48.658;9.068;2023-07-28T00:14:17;14.90;99.90
15596;DHT22;7898;48.658;9.068;2023-07-28T00:16:44;14.80;99.90
15596;DHT22;7898;48.658;9.068;2023-07-28T00:19:11;14.80;99.90
15596;DHT22;7898;48.658;9.068;2023-07-28T00:21:38;14.80;99.90
15596;DHT22;7898;48.658;9.068;2023-07-28T00:24:05;14.80;99.90
15596;DHT22;7898;48.658;9.068;2023-07-28T00:26:32;14.80;99.90
15596;DHT22;7898;48.658;9.068;2023-07-28T00:29:00;14.80;99.90
15596;DHT22;7898;48.658;9.068;2023-07-28T00:31:30;14.80;99.90
15596;DHT22;7898;48.658;9.068;2023-07-28T00:33:57;14.80;99.90
15596;DHT22;7898;48.658;9.068;2023-07-28T00:36:24;14.80;99.90
15596;DHT22;7898;48.658;9.068;2023-07-28T00:38:51;14.80;99.90
15596;DHT22;7898;48.658;9.068;2023-07-28T00:41:18;14.70;99.90
15596;DHT22;7898;48.658;9.068;2023-07-28T00:43:44;14.70;99.90
15596;DHT22;7898;48.658;9.068;2023-07-28T00:46:13;14.70;99.90
15596;DHT22;7898;48.658;9.068;2023-07-28T00:48:40;14.70;99.90
15596;DHT22;7898;48.658;9.068;2023-07-28T00:51:08;14.60;99.90
15596;DHT22;7898;48.658;9.068;2023-07-28T00:53:35;14.60;99.90
15596;DHT22;7898;48.658;9.068;2023-07-28T00:56:04;14.60;99.90
15596;DHT22;7898;48.658;9.068;2023-07-28T00:58:32;14.60;99.90
15596;DHT22;7898;48.658;9.068;2023-07-28T01:00:59;14.50;99.90
15596;DHT22;7898;48.658;9.068;2023-07-28T01:03:27;14.40;99.90
15596;DHT22;7898;48.658;9.068;2023-07-28T01:06:02;14.40;99.90
15596;DHT22;7898;48.658;9.068;2023-07-28T01:08:38;14.40;99.90
15596;DHT22;7898;48.658;9.068;2023-07-28T01:11:08;14.40;99.90
15596;DHT22;7898;48.658;9.068;2023-07-28T01:13:35;14.50;99.90
15596;DHT22;7898;48.658;9.068;2023-07-28T01:16:02;14.50;99.90
15596;DHT22;7898;48.658;9.068;2023-07-28T01:18:30;14.50;99.90
15596;DHT22;7898;48.658;9.068;2023-07-28T01:20:58;14.50;99.90
15596;DHT22;7898;48.658;9.068;2023-07-28T01:23:37;14.50;99.90
15596;DHT22;7898;48.658;9.068;2023-07-28T01:26:09;14.50;99.90
15596;DHT22;7898;48.658;9.068;2023-07-28T01:28:39;14.50;99.90
15596;DHT22;7898;48.658;9.068;2023-07-28T01:31:07;14.50;99.90
15596;DHT22;7898;48.658;9.068;2023-07-28T01:33:34;14.50;99.90
15596;DHT22;7898;48.658;9.068;2023-07-28T01:36:01;14.50;99.90
15596;DHT22;7898;48.658;9.068;2023-07-28T01:38:28;14.40;99.90
15596;DHT22;7898;48.658;9.068;2023-07-28T01:40:55;14.40;99.90
15596;DHT22;7898;48.658;9.068;2023-07-28T01:43:22;14.40;99.90
15596;DHT22;7898;48.658;9.068;2023-07-28T01:45:50;14.40;99.90
15596;DHT22;7898;48.658;9.068;2023-07-28T01:48:17;14.40;99.90
15596;DHT22;7898;48.658;9.068;2023-07-28T01:50:44;14.40;99.90
15596;DHT22;7898;48.658;9.068;2023-07-28T01:53:11;14.40;99.90
15596;DHT22;7898;48.658;9.068;2023-07-28T01:55:38;14.40;99.90
15596;DHT22;7898;48.658;9.068;2023-07-28T01:58:05;14.30;99.90
15596;DHT22;7898;48.658;9.068;2023-07-28T02:00:31;14.20;99.90
15596;DHT22;7898;48.658;9.068;2023-07-28T02:03:00;14.10;99.90
15596;DHT22;7898;48.658;9.068;2023-07-28T02:05:28;14.10;99.90
15596;DHT22;7898;48.658;9.068;2023-07-28T02:07:55;14.20;99.90
15596;DHT22;7898;48.658;9.068;2023-07-28T02:10:23;14.10;99.90
15596;DHT22;7898;48.658;9.068;2023-07-28T02:12:50;14.10;99.90
15596;DHT22;7898;48.658;9.068;2023-07-28T02:15:17;14.00;99.90
15596;DHT22;7898;48.658;9.068;2023-07-28T02:17:44;14.00;99.90
15596;DHT22;7898;48.658;9.068;2023-07-28T02:20:13;14.00;99.90
15596;DHT22;7898;48.658;9.068;2023-07-28T02:22:41;14.00;99.90
15596;DHT22;7898;48.658;9.068;2023-07-28T02:25:08;14.00;99.90
15596;DHT22;7898;48.658;9.068;2023-07-28T02:27:35;14.00;99.90
15596;DHT22;7898;48.658;9.068;2023-07-28T02:30:03;13.90;99.90
15596;DHT22;7898;48.658;9.068;2023-07-28T02:32:30;14.00;99.90
15596;DHT22;7898;48.658;9.068;2023-07-28T02:34:57;14.00;99.90
15596;DHT22;7898;48.658;9.068;2023-07-28T02:37:25;14.00;99.90
15596;DHT22;7898;48.658;9.068;2023-07-28T02:39:53;14.10;99.90
15596;DHT22;7898;48.658;9.068;2023-07-28T02:42:19;14.10;99.90
15596;DHT22;7898;48.658;9.068;2023-07-28T02:44:46;14.10;99.90
15596;DHT22;7898;48.658;9.068;2023-07-28T02:47:13;14.10;99.90
15596;DHT22;7898;48.658;9.068;2023-07-28T02:49:41;14.10;99.90
15596;DHT22;7898;48.658;9.068;2023-07-28T02:52:08;14.10;99.90
15596;DHT22;7898;48.658;9.068;2023-07-28T02:54:36;14.10;99.90
15596;DHT22;7898;48.658;9.068;2023-07-28T02:57:04;14.20;99.90
15596;DHT22;7898;48.658;9.068;2023-07-28T02:59:31;14.20;99.90
15596;DHT22;7898;48.658;9.068;2023-07-28T03:01:57;14.20;99.90
15596;DHT22;7898;48.658;9.068;2023-07-28T03:04:24;14.30;99.90
15596;DHT22;7898;48.658;9.068;2023-07-28T03:06:51;14.30;99.90
15596;DHT22;7898;48.658;9.068;2023-07-28T03:09:18;14.30;99.90
15596;DHT22;7898;48.658;9.068;2023-07-28T03:11:46;14.40;99.90
15596;DHT22;7898;48.658;9.068;2023-07-28T03:14:13;14.40;99.90
15596;DHT22;7898;48.658;9.068;2023-07-28T03:16:40;14.40;99.90
15596;DHT22;7898;48.658;9.068;2023-07-28T03:19:07;14.50;99.90
15596;DHT22;7898;48.658;9.068;2023-07-28T03:21:34;14.60;99.90
15596;DHT22;7898;48.658;9.068;2023-07-28T03:24:01;14.60;99.90
15596;DHT22;7898;48.658;9.068;2023-07-28T03:26:28;14.90;99.90
15596;DHT22;7898;48.658;9.068;2023-07-28T03:28:56;14.70;99.90
15596;DHT22;7898;48.658;9.068;2023-07-28T03:31:23;14.80;99.90
15596;DHT22;7898;48.658;9.068;2023-07-28T03:33:50;14.80;99.90
15596;DHT22;7898;48.658;9.068;2023-07-28T03:36:17;14.80;99.90
15596;DHT22;7898;48.658;9.068;2023-07-28T03:38:45;14.90;99.90
15596;DHT22;7898;48.658;9.068;2023-07-28T03:41:12;14.90;99.90
15596;DHT22;7898;48.658;9.068;2023-07-28T03:43:39;15.00;99.90
15596;DHT22;7898;48.658;9.068;2023-07-28T03:46:07;15.00;99.90
15596;DHT22;7898;48.658;9.068;2023-07-28T03:48:34;15.00;99.90
15596;DHT22;7898;48.658;9.068;2023-07-28T03:51:01;15.10;99.90
15596;DHT22;7898;48.658;9.068;2023-07-28T03:53:28;15.00;99.90
15596;DHT22;7898;48.658;9.068;2023-07-28T03:55:55;15.10;99.90
15596;DHT22;7898;48.658;9.068;2023-07-28T03:58:23;15.10;99.90
15596;DHT22;7898;48.658;9.068;2023-07-28T04:00:51;15.10;99.90
15596;DHT22;7898;48.658;9.068;2023-07-28T04:03:19;15.10;99.90
15596;DHT22;7898;48.658;9.068;2023-07-28T04:05:46;15.20;99.90
15596;DHT22;7898;48.658;9.068;2023-07-28T04:08:13;15.20;99.90
15596;DHT22;7898;48.658;9.068;2023-07-28T04:10:40;15.20;99.90
15596;DHT22;7898;48.658;9.068;2023-07-28T04:13:07;15.30;99.90
15596;DHT22;7898;48.658;9.068;2023-07-28T04:15:34;15.30;99.90
15596;DHT22;7898;48.658;9.068;2023-07-28T04:18:01;15.40;99.90
15596;DHT22;7898;48.658;9.068;2023-07-28T04:20:29;15.40;99.90
15596;DHT22;7898;48.658;9.068;2023-07-28T04:22:56;15.40;99.90
15596;DHT22;7898;48.658;9.068;2023-07-28T04:25:23;15.40;99.90
15596;DHT22;7898;48.658;9.068;2023-07-28T04:27:50;15.40;99.90
15596;DHT22;7898;48.658;9.068;2023-07-28T04:30:17;15.40;99.90
15596;DHT22;7898;48.658;9.068;2023-07-28T04:32:43;15.50;99.90
15596;DHT22;7898;48.658;9.068;2023-07-28T04:35:10;15.50;99.90
15596;DHT22;7898;48.658;9.068;2023-07-28T04:37:38;15.60;99.90
15596;DHT22;7898;48.658;9.068;2023-07-28T04:40:07;15.70;99.90
15596;DHT22;7898;48.658;9.068;2023-07-28T04:42:34;15.70;99.90
15596;DHT22;7898;48.658;9.068;2023-07-28T04:45:01;15.80;99.90
15596;DHT22;7898;48.658;9.068;2023-07-28T04:47:28;15.80;99.90
15596;DHT22;7898;48.658;9.068;2023-07-28T04:49:55;15.90;99.90
15596;DHT22;7898;48.658;9.068;2023-07-28T04:52:22;15.90;99.90
15596;DHT22;7898;48.658;9.068;2023-07-28T04:54:50;16.00;99.90
15596;DHT22;7898;48.658;9.068;2023-07-28T04:57:18;16.00;99.90
15596;DHT22;7898;48.658;9.068;2023-07-28T04:59:45;16.00;99.90
15596;DHT22;7898;48.658;9.068;2023-07-28T05:02:12;15.90;99.90
15596;DHT22;7898;48.658;9.068;2023-07-28T05:04:38;15.90;99.90
15596;DHT22;7898;48.658;9.068;2023-07-28T05:07:05;15.90;99.90
15596;DHT22;7898;48.658;9.068;2023-07-28T05:09:32;15.90;99.90
15596;DHT22;7898;48.658;9.068;2023-07-28T05:12:00;15.90;99.90
15596;DHT22;7898;48.658;9.068;2023-07-28T05:14:27;15.90;99.90
15596;DHT22;7898;48.658;9.068;2023-07-28T05:16:54;16.00;99.90
15596;DHT22;7898;48.658;9.068;2023-07-28T05:19:21;16.00;99.90
15596;DHT22;7898;48.658;9.068;2023-07-28T05:21:48;16.10;99.90
15596;DHT22;7898;48.658;9.068;2023-07-28T05:24:15;16.10;99.90
15596;DHT22;7898;48.658;9.068;2023-07-28T05:26:43;16.00;99.90
15596;DHT22;7898;48.658;9.068;2023-07-28T05:29:11;16.00;99.90
15596;DHT22;7898;48.658;9.068;2023-07-28T05:31:38;16.00;99.90
15596;DHT22;7898;48.658;9.068;2023-07-28T05:34:05;16.00;99.90
15596;DHT22;7898;48.658;9.068;2023-07-28T05:36:32;16.00;99.90
15596;DHT22;7898;48.658;9.068;2023-07-28T05:38:59;16.00;99.90
15596;DHT22;7898;48.658;9.068;2023-07-28T05:41:26;16.00;99.90
15596;DHT22;7898;48.658;9.068;2023-07-28T05:43:53;16.00;99.90
15596;DHT22;7898;48.658;9.068;2023-07-28T05:46:21;16.10;99.90
15596;DHT22;7898;48.658;9.068;2023-07-28T05:48:48;16.10;99.90
15596;DHT22;7898;48.658;9.068;2023-07-28T05:51:15;16.10;99.90
15596;DHT22;7898;48.658;9.068;2023-07-28T05:53:42;16.10;99.90
15596;DHT22;7898;48.658;9.068;2023-07-28T05:56:08;16.10;99.90
15596;DHT22;7898;48.658;9.068;2023-07-28T05:58:35;16.20;99.90
15596;DHT22;7898;48.658;9.068;2023-07-28T06:01:02;16.20;99.90
15596;DHT22;7898;48.658;9.068;2023-07-28T06:03:30;16.30;99.90
15596;DHT22;7898;48.658;9.068;2023-07-28T06:05:57;16.40;99.90
15596;DHT22;7898;48.658;9.068;2023-07-28T06:08:23;16.40;99.90
15596;DHT22;7898;48.658;9.068;2023-07-28T06:10:50;16.50;99.90
15596;DHT22;7898;48.658;9.068;2023-07-28T06:13:17;16.60;99.90
15596;DHT22;7898;48.658;9.068;2023-07-28T06:15:44;16.60;99.90
15596;DHT22;7898;48.658;9.068;2023-07-28T06:18:11;16.60;99.90
15596;DHT22;7898;48.658;9.068;2023-07-28T06:20:42;16.70;99.90
15596;DHT22;7898;48.658;9.068;2023-07-28T06:23:09;16.70;99.90
15596;DHT22;7898;48.658;9.068;2023-07-28T06:25:36;16.70;99.90
15596;DHT22;7898;48.658;9.068;2023-07-28T06:28:04;16.70;99.90
15596;DHT22;7898;48.658;9.068;2023-07-28T06:30:31;16.70;99.90
15596;DHT22;7898;48.658;9.068;2023-07-28T06:32:58;16.70;99.90
15596;DHT22;7898;48.658;9.068;2023-07-28T06:35:25;16.80;99.90
15596;DHT22;7898;48.658;9.068;2023-07-28T06:37:54;16.80;99.90
15596;DHT22;7898;48.658;9.068;2023-07-28T06:40:21;16.80;99.90
15596;DHT22;7898;48.658;9.068;2023-07-28T06:42:48;16.80;99.90
15596;DHT22;7898;48.658;9.068;2023-07-28T06:45:15;16.80;99.90
15596;DHT22;7898;48.658;9.068;2023-07-28T06:47:42;16.90;99.90
15596;DHT22;7898;48.658;9.068;2023-07-28T06:50:10;16.90;99.90
15596;DHT22;7898;48.658;9.068;2023-07-28T06:52:37;17.00;99.90
15596;DHT22;7898;48.658;9.068;2023-07-28T06:55:06;17.10;99.90
15596;DHT22;7898;48.658;9.068;2023-07-28T06:57:34;17.10;99.90
15596;DHT22;7898;48.658;9.068;2023-07-28T07:00:01;17.20;99.90
15596;DHT22;7898;48.658;9.068;2023-07-28T07:02:29;17.20;99.90
15596;DHT22;7898;48.658;9.068;2023-07-28T07:04:56;17.30;99.90
15596;DHT22;7898;48.658;9.068;2023-07-28T07:07:22;17.40;99.90
15596;DHT22;7898;48.658;9.068;2023-07-28T07:09:51;17.50;99.90
15596;DHT22;7898;48.658;9.068;2023-07-28T07:12:19;17.60;99.90
15596;DHT22;7898;48.658;9.068;2023-07-28T07:14:47;17.70;99.90
15596;DHT22;7898;48.658;9.068;2023-07-28T07:17:14;17.80;99.90
15596;DHT22;7898;48.658;9.068;2023-07-28T07:19:41;17.80;99.90
15596;DHT22;7898;48.658;9.068;2023-07-28T07:22:08;17.90;99.90
15596;DHT22;7898;48.658;9.068;2023-07-28T07:24:35;17.90;99.90
15596;DHT22;7898;48.658;9.068;2023-07-28T07:27:02;17.90;99.90
15596;DHT22;7898;48.658;9.068;2023-07-28T07:29:30;17.90;99.90
15596;DHT22;7898;48.658;9.068;2023-07-28T07:31:57;18.00;99.90
15596;DHT22;7898;48.658;9.068;2023-07-28T07:34:24;18.10;99.90
15596;DHT22;7898;48.658;9.068;2023-07-28T07:36:51;18.30;99.90
15596;DHT22;7898;48.658;9.068;2023-07-28T07:39:18;18.40;99.90
15596;DHT22;7898;48.658;9.068;2023-07-28T07:41:45;18.50;99.90
15596;DHT22;7898;48.658;9.068;2023-07-28T07:44:12;18.60;99.90
15596;DHT22;7898;48.658;9.068;2023-07-28T07:46:40;18.60;99.90
15596;DHT22;7898;48.658;9.068;2023-07-28T07:49:07;18.70;99.90
15596;DHT22;7898;48.658;9.068;2023-07-28T07:51:34;18.80;99.90
15596;DHT22;7898;48.658;9.068;2023-07-28T07:54:01;18.80;99.90
15596;DHT22;7898;48.658;9.068;2023-07-28T07:56:28;18.80;99.90
15596;DHT22;7898;48.658;9.068;2023-07-28T07:58:55;18.80;99.90
15596;DHT22;7898;48.658;9.068;2023-07-28T08:01:22;18.90;99.90
15596;DHT22;7898;48.658;9.068;2023-07-28T08:03:50;18.90;99.90
15596;DHT22;7898;48.658;9.068;2023-07-28T08:06:17;18.90;99.90
15596;DHT22;7898;48.658;9.068;2023-07-28T08:08:44;18.90;99.90
15596;DHT22;7898;48.658;9.068;2023-07-28T08:11:11;19.00;99.90
15596;DHT22;7898;48.658;9.068;2023-07-28T08:13:38;19.10;99.90
15596;DHT22;7898;48.658;9.068;2023-07-28T08:16:05;19.30;99.90
15596;DHT22;7898;48.658;9.068;2023-07-28T08:18:32;19.40;99.90
15596;DHT22;7898;48.658;9.068;2023-07-28T08:21:00;19.60;99.90
15596;DHT22;7898;48.658;9.068;2023-07-28T08:23:27;19.80;99.90
15596;DHT22;7898;48.658;9.068;2023-07-28T08:25:54;20.00;99.90
15596;DHT22;7898;48.658;9.068;2023-07-28T08:28:21;20.30;99.90
15596;DHT22;7898;48.658;9.068;2023-07-28T08:30:54;20.40;99.90
15596;DHT22;7898;48.658;9.068;2023-07-28T08:33:22;20.40;99.90
15596;DHT22;7898;48.658;9.068;2023-07-28T08:35:49;20.50;99.90
15596;DHT22;7898;48.658;9.068;2023-07-28T08:38:17;20.50;99.90
15596;DHT22;7898;48.658;9.068;2023-07-28T08:40:44;20.50;99.90
15596;DHT22;7898;48.658;9.068;2023-07-28T08:43:11;20.50;99.90
15596;DHT22;7898;48.658;9.068;2023-07-28T08:45:38;20.50;99.90
15596;DHT22;7898;48.658;9.068;2023-07-28T08:48:05;20.70;99.90
15596;DHT22;7898;48.658;9.068;2023-07-28T08:50:32;20.90;99.90
15596;DHT22;7898;48.658;9.068;2023-07-28T08:52:59;21.00;99.90
15596;DHT22;7898;48.658;9.068;2023-07-28T08:55:28;21.10;99.90
15596;DHT22;7898;48.658;9.068;2023-07-28T08:57:54;21.20;99.90
15596;DHT22;7898;48.658;9.068;2023-07-28T09:00:23;21.20;99.90
15596;DHT22;7898;48.658;9.068;2023-07-28T09:02:51;21.20;99.90
15596;DHT22;7898;48.658;9.068;2023-07-28T09:05:18;21.20;99.90
15596;DHT22;7898;48.658;9.068;2023-07-28T09:07:46;21.10;99.90
15596;DHT22;7898;48.658;9.068;2023-07-28T09:10:13;21.10;99.90
15596;DHT22;7898;48.658;9.068;2023-07-28T09:12:48;21.10;99.90
15596;DHT22;7898;48.658;9.068;2023-07-28T09:15:15;21.10;99.90
15596;DHT22;7898;48.658;9.068;2023-07-28T09:17:43;21.20;99.90
15596;DHT22;7898;48.658;9.068;2023-07-28T09:20:13;21.20;99.90
15596;DHT22;7898;48.658;9.068;2023-07-28T09:22:41;21.20;99.90
15596;DHT22;7898;48.658;9.068;2023-07-28T09:25:15;21.20;99.90
15596;DHT22;7898;48.658;9.068;2023-07-28T09:27:50;21.30;99.90
15596;DHT22;7898;48.658;9.068;2023-07-28T09:30:17;21.30;99.90
15596;DHT22;7898;48.658;9.068;2023-07-28T09:32:47;21.30;99.90
15596;DHT22;7898;48.658;9.068;2023-07-28T09:35:15;21.30;99.90
15596;DHT22;7898;48.658;9.068;2023-07-28T09:37:43;21.30;99.90
15596;DHT22;7898;48.658;9.068;2023-07-28T09:40:11;21.30;99.90
15596;DHT22;7898;48.658;9.068;2023-07-28T09:42:38;21.40;99.90
15596;DHT22;7898;48.658;9.068;2023-07-28T09:45:09;21.60;99.90
15596;DHT22;7898;48.658;9.068;2023-07-28T09:47:37;21.90;99.90
15596;DHT22;7898;48.658;9.068;2023-07-28T09:50:06;22.00;99.90
15596;DHT22;7898;48.658;9.068;2023-07-28T09:52:36;22.00;99.90
15596;DHT22;7898;48.658;9.068;2023-07-28T09:55:06;22.00;99.90
15596;DHT22;7898;48.658;9.068;2023-07-28T09:57:38;22.00;99.90
15596;DHT22;7898;48.658;9.068;2023-07-28T10:00:09;22.00;99.90
15596;DHT22;7898;48.658;9.068;2023-07-28T10:02:37;22.10;99.90
15596;DHT22;7898;48.658;9.068;2023-07-28T10:05:06;22.20;99.90
15596;DHT22;7898;48.658;9.068;2023-07-28T10:07:34;22.20;99.90
15596;DHT22;7898;48.658;9.068;2023-07-28T10:10:04;22.30;99.90
15596;DHT22;7898;48.658;9.068;2023-07-28T10:12:39;22.30;99.90
15596;DHT22;7898;48.658;9.068;2023-07-28T10:15:12;22.40;99.90
15596;DHT22;7898;48.658;9.068;2023-07-28T10:17:43;22.30;99.90
15596;DHT22;7898;48.658;9.068;2023-07-28T10:20:29;22.30;99.90
15596;DHT22;7898;48.658;9.068;2023-07-28T10:23:03;22.30;99.90
15596;DHT22;7898;48.658;9.068;2023-07-28T10:25:33;22.30;99.90
15596;DHT22;7898;48.658;9.068;2023-07-28T10:28:00;22.30;99.90
15596;DHT22;7898;48.658;9.068;2023-07-28T10:30:37;22.30;99.90
15596;DHT22;7898;48.658;9.068;2023-07-28T10:33:05;22.30;99.90
15596;DHT22;7898;48.658;9.068;2023-07-28T10:35:32;22.30;99.90
15596;DHT22;7898;48.658;9.068;2023-07-28T10:38:33;22.30;99.90
15596;DHT22;7898;48.658;9.068;2023-07-28T10:41:13;22.30;99.90
15596;DHT22;7898;48.658;9.068;2023-07-28T10:43:41;22.30;99.90
15596;DHT22;7898;48.658;9.068;2023-07-28T10:46:10;22.40;99.90
15596;DHT22;7898;48.658;9.068;2023-07-28T10:48:41;22.50;99.90
15596;DHT22;7898;48.658;9.068;2023-07-28T10:51:09;22.60;99.90
15596;DHT22;7898;48.658;9.068;2023-07-28T10:53:37;22.80;99.90
15596;DHT22;7898;48.658;9.068;2023-07-28T10:56:05;23.00;99.90
15596;DHT22;7898;48.658;9.068;2023-07-28T10:58:34;23.10;99.90
15596;DHT22;7898;48.658;9.068;2023-07-28T11:01:01;23.20;99.90
15596;DHT22;7898;48.658;9.068;2023-07-28T11:03:30;23.30;99.90
15596;DHT22;7898;48.658;9.068;2023-07-28T11:05:57;23.30;99.90
15596;DHT22;7898;48.658;9.068;2023-07-28T11:08:24;23.40;99.90
15596;DHT22;7898;48.658;9.068;2023-07-28T11:10:51;23.40;99.90
15596;DHT22;7898;48.658;9.068;2023-07-28T11:13:18;23.40;99.90
15596;DHT22;7898;48.658;9.068;2023-07-28T11:15:45;23.50;99.90
15596;DHT22;7898;48.658;9.068;2023-07-28T11:18:15;23.50;99.90
15596;DHT22;7898;48.658;9.068;2023-07-28T11:20:43;23.50;99.90
15596;DHT22;7898;48.658;9.068;2023-07-28T11:23:14;23.60;99.90
15596;DHT22;7898;48.658;9.068;2023-07-28T11:25:43;23.60;99.90
15596;DHT22;7898;48.658;9.068;2023-07-28T11:28:11;23.70;99.90
15596;DHT22;7898;48.658;9.068;2023-07-28T11:30:38;23.70;99.90
15596;DHT22;7898;48.658;9.068;2023-07-28T11:33:08;23.70;99.90
15596;DHT22;7898;48.658;9.068;2023-07-28T11:35:37;23.60;99.90
15596;DHT22;7898;48.658;9.068;2023-07-28T11:38:05;23.30;99.90
15596;DHT22;7898;48.658;9.068;2023-07-28T11:40:33;23.10;99.90
15596;DHT22;7898;48.658;9.068;2023-07-28T11:43:00;22.90;99.90
15596;DHT22;7898;48.658;9.068;2023-07-28T11:45:29;22.70;99.90
15596;DHT22;7898;48.658;9.068;2023-07-28T11:47:57;22.50;99.90
15596;DHT22;7898;48.658;9.068;2023-07-28T11:50:26;22.30;99.90
15596;DHT22;7898;48.658;9.068;2023-07-28T11:52:53;22.20;99.90
15596;DHT22;7898;48.658;9.068;2023-07-28T11:55:23;22.00;99.90
15596;DHT22;7898;48.658;9.068;2023-07-28T11:57:51;21.90;99.90
15596;DHT22;7898;48.658;9.068;2023-07-28T12:00:19;21.70;99.90
15596;DHT22;7898;48.658;9.068;2023-07-28T12:03:01;21.60;99.90
15596;DHT22;7898;48.658;9.068;2023-07-28T12:05:29;21.50;99.90
15596;DHT22;7898;48.658;9.068;2023-07-28T12:07:56;21.50;99.90
15596;DHT22;7898;48.658;9.068;2023-07-28T12:10:24;21.50;99.90
15596;DHT22;7898;48.658;9.068;2023-07-28T12:12:51;21.60;99.90
15596;DHT22;7898;48.658;9.068;2023-07-28T12:15:20;21.70;99.90
15596;DHT22;7898;48.658;9.068;2023-07-28T12:18:06;21.80;99.90
15596;DHT22;7898;48.658;9.068;2023-07-28T12:20:34;21.90;99.90
15596;DHT22;7898;48.658;9.068;2023-07-28T12:23:02;21.90;99.90
15596;DHT22;7898;48.658;9.068;2023-07-28T12:25:31;22.10;99.90
15596;DHT22;7898;48.658;9.068;2023-07-28T12:27:58;22.20;99.90
15596;DHT22;7898;48.658;9.068;2023-07-28T12:30:25;22.30;99.90
15596;DHT22;7898;48.658;9.068;2023-07-28T12:32:52;22.40;99.90
15596;DHT22;7898;48.658;9.068;2023-07-28T12:35:19;22.50;99.90
15596;DHT22;7898;48.658;9.068;2023-07-28T12:37:49;22.60;99.90
15596;DHT22;7898;48.658;9.068;2023-07-28T12:40:17;22.80;99.90
15596;DHT22;7898;48.658;9.068;2023-07-28T12:42:46;22.90;99.90
15596;DHT22;7898;48.658;9.068;2023-07-28T12:45:13;22.90;99.90
15596;DHT22;7898;48.658;9.068;2023-07-28T12:47:41;22.90;99.90
15596;DHT22;7898;48.658;9.068;2023-07-28T12:50:09;22.80;99.90
15596;DHT22;7898;48.658;9.068;2023-07-28T12:52:36;22.70;99.90
15596;DHT22;7898;48.658;9.068;2023-07-28T12:55:03;22.60;99.90
15596;DHT22;7898;48.658;9.068;2023-07-28T12:57:30;22.60;99.90
15596;DHT22;7898;48.658;9.068;2023-07-28T12:59:59;22.50;99.90
15596;DHT22;7898;48.658;9.068;2023-07-28T13:02:26;22.40;99.90
15596;DHT22;7898;48.658;9.068;2023-07-28T13:04:53;22.40;99.90
15596;DHT22;7898;48.658;9.068;2023-07-28T13:07:20;22.40;99.90
15596;DHT22;7898;48.658;9.068;2023-07-28T13:09:48;22.30;99.90
15596;DHT22;7898;48.658;9.068;2023-07-28T13:12:14;22.30;99.90
15596;DHT22;7898;48.658;9.068;2023-07-28T13:14:41;22.20;99.90
15596;DHT22;7898;48.658;9.068;2023-07-28T13:17:10;22.00;99.90
15596;DHT22;7898;48.658;9.068;2023-07-28T13:19:37;22.00;99.90
15596;DHT22;7898;48.658;9.068;2023-07-28T13:22:04;21.90;99.90
15596;DHT22;7898;48.658;9.068;2023-07-28T13:24:32;21.80;99.90
15596;DHT22;7898;48.658;9.068;2023-07-28T13:26:58;21.70;99.90
15596;DHT22;7898;48.658;9.068;2023-07-28T13:29:25;21.60;99.90
15596;DHT22;7898;48.658;9.068;2023-07-28T13:31:57;21.40;99.90
15596;DHT22;7898;48.658;9.068;2023-07-28T13:34:26;21.30;99.90
15596;DHT22;7898;48.658;9.068;2023-07-28T13:36:53;21.20;99.90
15596;DHT22;7898;48.658;9.068;2023-07-28T13:39:20;21.10;99.90
15596;DHT22;7898;48.658;9.068;2023-07-28T13:41:47;21.00;99.90
15596;DHT22;7898;48.658;9.068;2023-07-28T13:44:14;20.90;99.90
15596;DHT22;7898;48.658;9.068;2023-07-28T13:46:41;20.80;99.90
15596;DHT22;7898;48.658;9.068;2023-07-28T13:49:08;20.70;99.90
15596;DHT22;7898;48.658;9.068;2023-07-28T13:51:37;20.50;99.90
15596;DHT22;7898;48.658;9.068;2023-07-28T13:54:03;20.40;99.90
15596;DHT22;7898;48.658;9.068;2023-07-28T13:56:31;20.20;99.90
15596;DHT22;7898;48.658;9.068;2023-07-28T13:58:58;20.10;99.90
15596;DHT22;7898;48.658;9.068;2023-07-28T14:01:24;20.00;99.90
15596;DHT22;7898;48.658;9.068;2023-07-28T14:03:51;19.90;99.90
15596;DHT22;7898;48.658;9.068;2023-07-28T14:06:19;19.80;99.90
15596;DHT22;7898;48.658;9.068;2023-07-28T14:08:47;19.80;99.90
15596;DHT22;7898;48.658;9.068;2023-07-28T14:11:14;19.80;99.90
15596;DHT22;7898;48.658;9.068;2023-07-28T14:13:41;19.80;99.90
15596;DHT22;7898;48.658;9.068;2023-07-28T14:16:08;19.60;99.90
15596;DHT22;7898;48.658;9.068;2023-07-28T14:18:35;19.80;99.90
15596;DHT22;7898;48.658;9.068;2023-07-28T14:21:02;19.80;99.90
15596;DHT22;7898;48.658;9.068;2023-07-28T14:23:29;19.80;99.90
15596;DHT22;7898;48.658;9.068;2023-07-28T14:25:57;19.90;99.90
15596;DHT22;7898;48.658;9.068;2023-07-28T14:28:25;19.90;99.90
15596;DHT22;7898;48.658;9.068;2023-07-28T14:30:52;20.00;99.90
15596;DHT22;7898;48.658;9.068;2023-07-28T14:33:19;20.10;99.90
15596;DHT22;7898;48.658;9.068;2023-07-28T14:35:49;20.20;99.90
15596;DHT22;7898;48.658;9.068;2023-07-28T14:38:16;20.20;99.90
15596;DHT22;7898;48.658;9.068;2023-07-28T14:40:43;20.20;99.90
15596;DHT22;7898;48.658;9.068;2023-07-28T14:43:15;20.30;99.90
15596;DHT22;7898;48.658;9.068;2023-07-28T14:45:42;20.30;99.90
15596;DHT22;7898;48.658;9.068;2023-07-28T14:48:09;20.20;99.90
15596;DHT22;7898;48.658;9.068;2023-07-28T14:50:36;20.30;99.90
15596;DHT22;7898;48.658;9.068;2023-07-28T14:53:03;20.20;99.90
15596;DHT22;7898;48.658;9.068;2023-07-28T14:55:49;20.30;99.90
15596;DHT22;7898;48.658;9.068;2023-07-28T14:58:18;20.30;99.90
15596;DHT22;7898;48.658;9.068;2023-07-28T15:00:45;20.40;99.90
15596;DHT22;7898;48.658;9.068;2023-07-28T15:03:11;20.50;99.90
15596;DHT22;7898;48.658;9.068;2023-07-28T15:05:38;20.80;99.90
15596;DHT22;7898;48.658;9.068;2023-07-28T15:08:06;20.90;99.90
15596;DHT22;7898;48.658;9.068;2023-07-28T15:10:32;21.10;99.90
15596;DHT22;7898;48.658;9.068;2023-07-28T15:12:59;21.20;99.90
15596;DHT22;7898;48.658;9.068;2023-07-28T15:15:28;21.20;99.90
15596;DHT22;7898;48.658;9.068;2023-07-28T15:17:54;21.10;99.90
15596;DHT22;7898;48.658;9.068;2023-07-28T15:20:21;21.10;99.90
15596;DHT22;7898;48.658;9.068;2023-07-28T15:22:50;21.10;99.90
15596;DHT22;7898;48.658;9.068;2023-07-28T15:25:16;21.10;99.90
15596;DHT22;7898;48.658;9.068;2023-07-28T15:27:43;21.00;99.90
15596;DHT22;7898;48.658;9.068;2023-07-28T15:30:11;20.80;99.90
15596;DHT22;7898;48.658;9.068;2023-07-28T15:32:40;20.80;99.90
15596;DHT22;7898;48.658;9.068;2023-07-28T15:35:07;20.60;99.90
15596;DHT22;7898;48.658;9.068;2023-07-28T15:37:35;20.60;99.90
15596;DHT22;7898;48.658;9.068;2023-07-28T15:40:02;20.60;99.90
15596;DHT22;7898;48.658;9.068;2023-07-28T15:42:29;20.60;99.90
15596;DHT22;7898;48.658;9.068;2023-07-28T15:44:56;20.50;99.90
15596;DHT22;7898;48.658;9.068;2023-07-28T15:47:23;20.40;99.90
15596;DHT22;7898;48.658;9.068;2023-07-28T15:49:51;20.30;99.90